sensor_id;sensor_type;location;lat;lon;timestamp;temperature;humidity
48454;DHT22;34261;55.678;12.464;2022-07-03T00:01:41;19.10;99.90
48454;DHT22;34261;55.678;12.464;2022-07-03T00:04:06;19.10;99.90
48454;DHT22;34261;55.678;12.464;2022-07-03T00:06:32;19.10;99.90
48454;DHT22;34261;55.678;12.464;2022-07-03T00:08:59;19.10;99.90
48454;DHT22;34261;55.678;12.464;2022-07-03T00:11:25;19.10;99.90
48454;DHT22;34261;55.678;12.464;2022-07-03T00:13:51;19.10;99.90
48454;DHT22;34261;55.678;12.464;2022-07-03T00:16:16;19.10;99.90
48454;DHT22;34261;55.678;12.464;2022-07-03T00:18:42;19.00;99.90
48454;DHT22;34261;55.678;12.464;2022-07-03T00:21:09;19.00;99.90
48454;DHT22;34261;55.678;12.464;2022-07-03T00:24:08;19.00;99.90
48454;DHT22;34261;55.678;12.464;2022-07-03T00:26:37;19.00;99.90
48454;DHT22;34261;55.678;12.464;2022-07-03T00:29:03;19.00;99.90
48454;DHT22;34261;55.678;12.464;2022-07-03T00:31:30;18.90;99.90
48454;DHT22;34261;55.678;12.464;2022-07-03T00:34:01;18.90;99.90
48454;DHT22;34261;55.678;12.464;2022-07-03T00:36:35;18.90;99.90
48454;DHT22;34261;55.678;12.464;2022-07-03T00:39:01;18.80;99.90
48454;DHT22;34261;55.678;12.464;2022-07-03T00:41:30;18.70;99.90
48454;DHT22;34261;55.678;12.464;2022-07-03T00:43:56;18.70;99.90
48454;DHT22;34261;55.678;12.464;2022-07-03T00:46:23;18.70;99.90
48454;DHT22;34261;55.678;12.464;2022-07-03T00:48:50;18.60;99.90
48454;DHT22;34261;55.678;12.464;2022-07-03T00:51:27;18.50;99.90
48454;DHT22;34261;55.678;12.464;2022-07-03T00:53:55;18.50;99.90
48454;DHT22;34261;55.678;12.464;2022-07-03T00:56:27;18.50;99.90
48454;DHT22;34261;55.678;12.464;2022-07-03T00:58:56;18.50;99.90
48454;DHT22;34261;55.678;12.464;2022-07-03T01:01:35;18.50;99.90
48454;DHT22;34261;55.678;12.464;2022-07-03T01:04:22;18.40;99.90
48454;DHT22;34261;55.678;12.464;2022-07-03T01:06:54;18.30;99.90
48454;DHT22;34261;55.678;12.464;2022-07-03T01:09:29;18.30;99.90
48454;DHT22;34261;55.678;12.464;2022-07-03T01:12:03;18.20;99.90
48454;DHT22;34261;55.678;12.464;2022-07-03T01:14:45;18.20;99.90
48454;DHT22;34261;55.678;12.464;2022-07-03T01:17:39;18.20;99.90
48454;DHT22;34261;55.678;12.464;2022-07-03T01:20:05;18.20;99.90
48454;DHT22;34261;55.678;12.464;2022-07-03T01:22:45;18.20;99.90
48454;DHT22;34261;55.678;12.464;2022-07-03T01:25:56;18.20;99.90
48454;DHT22;34261;55.678;12.464;2022-07-03T01:28:16;18.20;99.90
48454;DHT22;34261;55.678;12.464;2022-07-03T01:30:51;18.30;99.90
48454;DHT22;34261;55.678;12.464;2022-07-03T01:33:27;18.30;99.90
48454;DHT22;34261;55.678;12.464;2022-07-03T01:36:05;18.20;99.90
48454;DHT22;34261;55.678;12.464;2022-07-03T01:38:33;18.20;99.90
48454;DHT22;34261;55.678;12.464;2022-07-03T01:41:01;18.20;99.90
48454;DHT22;34261;55.678;12.464;2022-07-03T01:43:29;18.30;99.90
48454;DHT22;34261;55.678;12.464;2022-07-03T01:45:58;18.30;99.90
48454;DHT22;34261;55.678;12.464;2022-07-03T01:48:25;18.30;99.90
48454;DHT22;34261;55.678;12.464;2022-07-03T01:50:51;18.40;99.90
48454;DHT22;34261;55.678;12.464;2022-07-03T01:53:17;18.40;99.90
48454;DHT22;34261;55.678;12.464;2022-07-03T01:55:43;18.40;99.90
48454;DHT22;34261;55.678;12.464;2022-07-03T01:58:10;18.40;99.90
48454;DHT22;34261;55.678;12.464;2022-07-03T02:01:00;18.40;99.90
48454;DHT22;34261;55.678;12.464;2022-07-03T02:03:30;18.50;99.90
48454;DHT22;34261;55.678;12.464;2022-07-03T02:06:09;18.50;99.90
48454;DHT22;34261;55.678;12.464;2022-07-03T02:09:04;18.50;99.90
48454;DHT22;34261;55.678;12.464;2022-07-03T02:11:41;18.50;99.90
48454;DHT22;34261;55.678;12.464;2022-07-03T02:14:18;18.60;99.90
48454;DHT22;34261;55.678;12.464;2022-07-03T02:19:54;18.60;99.90
48454;DHT22;34261;55.678;12.464;2022-07-03T02:22:46;18.60;99.90
48454;DHT22;34261;55.678;12.464;2022-07-03T02:25:19;18.70;99.90
48454;DHT22;34261;55.678;12.464;2022-07-03T02:27:51;18.70;99.90
48454;DHT22;34261;55.678;12.464;2022-07-03T02:30:22;18.70;99.90
48454;DHT22;34261;55.678;12.464;2022-07-03T02:32:50;18.70;99.90
48454;DHT22;34261;55.678;12.464;2022-07-03T02:35:26;18.70;99.90
48454;DHT22;34261;55.678;12.464;2022-07-03T02:43:30;18.80;99.90
48454;DHT22;34261;55.678;12.464;2022-07-03T02:46:10;18.90;99.90
48454;DHT22;34261;55.678;12.464;2022-07-03T02:51:54;19.00;99.90
48454;DHT22;34261;55.678;12.464;2022-07-03T02:54:24;19.10;99.90
48454;DHT22;34261;55.678;12.464;2022-07-03T02:57:05;19.10;99.90
48454;DHT22;34261;55.678;12.464;2022-07-03T02:59:52;19.20;99.90
48454;DHT22;34261;55.678;12.464;2022-07-03T03:08:11;19.30;99.90
48454;DHT22;34261;55.678;12.464;2022-07-03T03:10:38;19.30;99.90
48454;DHT22;34261;55.678;12.464;2022-07-03T03:13:06;19.30;99.90
48454;DHT22;34261;55.678;12.464;2022-07-03T03:15:34;19.30;99.90
48454;DHT22;34261;55.678;12.464;2022-07-03T03:18:06;19.30;99.90
48454;DHT22;34261;55.678;12.464;2022-07-03T03:20:35;19.30;99.90
48454;DHT22;34261;55.678;12.464;2022-07-03T03:23:16;19.30;99.90
48454;DHT22;34261;55.678;12.464;2022-07-03T03:25:43;19.30;99.90
48454;DHT22;34261;55.678;12.464;2022-07-03T03:28:09;19.40;99.90
48454;DHT22;34261;55.678;12.464;2022-07-03T03:30:36;19.40;99.90
48454;DHT22;34261;55.678;12.464;2022-07-03T03:33:05;19.40;99.90
48454;DHT22;34261;55.678;12.464;2022-07-03T03:35:34;19.50;99.90
48454;DHT22;34261;55.678;12.464;2022-07-03T03:38:00;19.50;99.90
48454;DHT22;34261;55.678;12.464;2022-07-03T03:40:28;19.50;99.90
48454;DHT22;34261;55.678;12.464;2022-07-03T03:42:54;19.50;99.90
48454;DHT22;34261;55.678;12.464;2022-07-03T03:45:20;19.50;99.90
48454;DHT22;34261;55.678;12.464;2022-07-03T03:47:47;19.50;99.90
48454;DHT22;34261;55.678;12.464;2022-07-03T03:50:16;19.50;99.90
48454;DHT22;34261;55.678;12.464;2022-07-03T03:52:42;19.50;99.90
48454;DHT22;34261;55.678;12.464;2022-07-03T03:55:09;19.50;99.90
48454;DHT22;34261;55.678;12.464;2022-07-03T03:57:35;19.60;99.90
48454;DHT22;34261;55.678;12.464;2022-07-03T04:00:03;19.60;99.90
48454;DHT22;34261;55.678;12.464;2022-07-03T04:02:29;19.60;99.90
48454;DHT22;34261;55.678;12.464;2022-07-03T04:04:58;19.60;99.90
48454;DHT22;34261;55.678;12.464;2022-07-03T04:07:24;19.60;99.90
48454;DHT22;34261;55.678;12.464;2022-07-03T04:09:49;19.60;99.90
48454;DHT22;34261;55.678;12.464;2022-07-03T04:12:15;19.60;99.90
48454;DHT22;34261;55.678;12.464;2022-07-03T04:14:41;19.60;99.90
48454;DHT22;34261;55.678;12.464;2022-07-03T04:17:07;19.70;99.90
48454;DHT22;34261;55.678;12.464;2022-07-03T04:19:34;19.70;99.90
48454;DHT22;34261;55.678;12.464;2022-07-03T04:22:00;19.70;99.90
48454;DHT22;34261;55.678;12.464;2022-07-03T04:24:26;19.70;99.90
48454;DHT22;34261;55.678;12.464;2022-07-03T04:26:52;19.80;99.90
48454;DHT22;34261;55.678;12.464;2022-07-03T04:29:19;19.80;99.90
48454;DHT22;34261;55.678;12.464;2022-07-03T04:31:47;19.80;99.90
48454;DHT22;34261;55.678;12.464;2022-07-03T04:34:15;19.80;99.90
48454;DHT22;34261;55.678;12.464;2022-07-03T04:36:41;19.90;99.90
48454;DHT22;34261;55.678;12.464;2022-07-03T04:39:07;19.90;99.90
48454;DHT22;34261;55.678;12.464;2022-07-03T04:41:33;20.00;99.90
48454;DHT22;34261;55.678;12.464;2022-07-03T04:43:59;20.00;99.90
48454;DHT22;34261;55.678;12.464;2022-07-03T04:46:25;20.00;99.90
48454;DHT22;34261;55.678;12.464;2022-07-03T04:48:50;20.00;99.90
48454;DHT22;34261;55.678;12.464;2022-07-03T04:51:18;20.10;99.90
48454;DHT22;34261;55.678;12.464;2022-07-03T04:53:45;20.10;99.90
48454;DHT22;34261;55.678;12.464;2022-07-03T04:56:11;20.10;99.90
48454;DHT22;34261;55.678;12.464;2022-07-03T04:58:38;20.10;99.90
48454;DHT22;34261;55.678;12.464;2022-07-03T05:01:06;20.20;99.90
48454;DHT22;34261;55.678;12.464;2022-07-03T05:03:33;20.30;99.90
48454;DHT22;34261;55.678;12.464;2022-07-03T05:06:01;20.40;99.90
48454;DHT22;34261;55.678;12.464;2022-07-03T05:08:28;20.40;99.90
48454;DHT22;34261;55.678;12.464;2022-07-03T05:10:54;20.50;99.90
48454;DHT22;34261;55.678;12.464;2022-07-03T05:13:22;20.60;99.90
48454;DHT22;34261;55.678;12.464;2022-07-03T05:15:49;20.70;99.90
48454;DHT22;34261;55.678;12.464;2022-07-03T05:18:16;20.70;99.90
48454;DHT22;34261;55.678;12.464;2022-07-03T05:20:44;20.90;99.90
48454;DHT22;34261;55.678;12.464;2022-07-03T05:23:12;20.90;99.90
48454;DHT22;34261;55.678;12.464;2022-07-03T05:25:43;20.90;99.90
48454;DHT22;34261;55.678;12.464;2022-07-03T05:28:13;20.90;99.90
48454;DHT22;34261;55.678;12.464;2022-07-03T05:30:43;21.00;99.90
48454;DHT22;34261;55.678;12.464;2022-07-03T05:33:12;21.00;99.90
48454;DHT22;34261;55.678;12.464;2022-07-03T05:35:41;21.10;99.90
48454;DHT22;34261;55.678;12.464;2022-07-03T05:38:12;21.10;99.90
48454;DHT22;34261;55.678;12.464;2022-07-03T05:41:02;21.20;99.90
48454;DHT22;34261;55.678;12.464;2022-07-03T06:18:31;21.80;99.90
48454;DHT22;34261;55.678;12.464;2022-07-03T06:21:30;21.90;99.90
48454;DHT22;34261;55.678;12.464;2022-07-03T06:24:01;21.90;99.40
48454;DHT22;34261;55.678;12.464;2022-07-03T08:42:55;24.60;94.00
48454;DHT22;34261;55.678;12.464;2022-07-03T08:45:28;24.60;93.30
48454;DHT22;34261;55.678;12.464;2022-07-03T08:48:08;24.70;93.40
48454;DHT22;34261;55.678;12.464;2022-07-03T13:35:54;28.10;91.00
48454;DHT22;34261;55.678;12.464;2022-07-03T13:38:20;28.20;90.10
48454;DHT22;34261;55.678;12.464;2022-07-03T13:40:46;27.70;90.60
48454;DHT22;34261;55.678;12.464;2022-07-03T13:43:13;27.40;90.80
48454;DHT22;34261;55.678;12.464;2022-07-03T13:46:06;27.60;91.20
48454;DHT22;34261;55.678;12.464;2022-07-03T13:48:55;27.60;90.30
48454;DHT22;34261;55.678;12.464;2022-07-03T13:51:31;27.50;90.50
48454;DHT22;34261;55.678;12.464;2022-07-03T13:53:57;28.20;89.20
48454;DHT22;34261;55.678;12.464;2022-07-03T13:56:35;28.60;89.70
48454;DHT22;34261;55.678;12.464;2022-07-03T13:59:10;29.20;87.80
48454;DHT22;34261;55.678;12.464;2022-07-03T14:02:17;29.10;88.00
48454;DHT22;34261;55.678;12.464;2022-07-03T14:05:48;29.40;87.30
48454;DHT22;34261;55.678;12.464;2022-07-03T14:08:54;29.70;86.30
48454;DHT22;34261;55.678;12.464;2022-07-03T14:15:09;29.20;85.40
48454;DHT22;34261;55.678;12.464;2022-07-03T14:17:42;29.10;86.00
48454;DHT22;34261;55.678;12.464;2022-07-03T14:20:27;29.20;85.80
48454;DHT22;34261;55.678;12.464;2022-07-03T14:23:50;28.30;87.60
48454;DHT22;34261;55.678;12.464;2022-07-03T14:26:48;27.50;89.10
48454;DHT22;34261;55.678;12.464;2022-07-03T14:29:35;27.20;89.20
48454;DHT22;34261;55.678;12.464;2022-07-03T14:32:27;27.60;89.40
48454;DHT22;34261;55.678;12.464;2022-07-03T14:35:02;28.30;89.10
48454;DHT22;34261;55.678;12.464;2022-07-03T14:37:38;28.60;87.20
48454;DHT22;34261;55.678;12.464;2022-07-03T14:40:10;28.60;85.50
48454;DHT22;34261;55.678;12.464;2022-07-03T14:42:42;28.30;86.20
48454;DHT22;34261;55.678;12.464;2022-07-03T14:45:10;28.10;86.20
48454;DHT22;34261;55.678;12.464;2022-07-03T14:47:36;28.60;85.60
48454;DHT22;34261;55.678;12.464;2022-07-03T14:50:04;29.20;88.20
48454;DHT22;34261;55.678;12.464;2022-07-03T14:52:36;29.30;84.20
48454;DHT22;34261;55.678;12.464;2022-07-03T14:55:11;28.60;83.90
48454;DHT22;34261;55.678;12.464;2022-07-03T15:00:34;27.10;86.30
48454;DHT22;34261;55.678;12.464;2022-07-03T15:03:32;27.10;86.70
48454;DHT22;34261;55.678;12.464;2022-07-03T15:06:25;27.00;86.70
48454;DHT22;34261;55.678;12.464;2022-07-03T15:09:29;27.10;87.80
48454;DHT22;34261;55.678;12.464;2022-07-03T15:12:25;26.80;88.90
48454;DHT22;34261;55.678;12.464;2022-07-03T15:15:20;26.70;89.10
48454;DHT22;34261;55.678;12.464;2022-07-03T15:17:51;26.40;87.80
48454;DHT22;34261;55.678;12.464;2022-07-03T15:20:20;26.70;88.30
48454;DHT22;34261;55.678;12.464;2022-07-03T15:23:07;26.60;88.50
48454;DHT22;34261;55.678;12.464;2022-07-03T15:25:37;26.40;88.30
48454;DHT22;34261;55.678;12.464;2022-07-03T15:28:25;26.20;88.90
48454;DHT22;34261;55.678;12.464;2022-07-03T15:30:54;26.10;89.50
48454;DHT22;34261;55.678;12.464;2022-07-03T15:33:23;25.90;88.70
48454;DHT22;34261;55.678;12.464;2022-07-03T15:36:15;25.90;90.10
48454;DHT22;34261;55.678;12.464;2022-07-03T15:38:56;26.30;90.50
48454;DHT22;34261;55.678;12.464;2022-07-03T15:47:36;26.90;88.60
48454;DHT22;34261;55.678;12.464;2022-07-03T15:50:32;27.10;88.50
48454;DHT22;34261;55.678;12.464;2022-07-03T15:53:03;27.10;87.60
48454;DHT22;34261;55.678;12.464;2022-07-03T15:55:35;26.90;87.80
48454;DHT22;34261;55.678;12.464;2022-07-03T15:58:38;26.50;87.60
48454;DHT22;34261;55.678;12.464;2022-07-03T16:01:09;26.40;87.10
48454;DHT22;34261;55.678;12.464;2022-07-03T16:06:50;26.00;88.90
48454;DHT22;34261;55.678;12.464;2022-07-03T16:09:21;26.00;89.00
48454;DHT22;34261;55.678;12.464;2022-07-03T16:11:50;25.80;89.00
48454;DHT22;34261;55.678;12.464;2022-07-03T16:14:18;25.60;89.60
48454;DHT22;34261;55.678;12.464;2022-07-03T16:17:07;25.50;90.20
48454;DHT22;34261;55.678;12.464;2022-07-03T16:19:43;25.40;90.10
48454;DHT22;34261;55.678;12.464;2022-07-03T16:23:02;25.30;90.70
48454;DHT22;34261;55.678;12.464;2022-07-03T16:25:38;25.10;90.60
48454;DHT22;34261;55.678;12.464;2022-07-03T16:28:24;25.10;90.70
48454;DHT22;34261;55.678;12.464;2022-07-03T16:30:53;24.80;90.60
48454;DHT22;34261;55.678;12.464;2022-07-03T16:33:36;24.70;91.20
48454;DHT22;34261;55.678;12.464;2022-07-03T16:36:32;24.50;91.40
48454;DHT22;34261;55.678;12.464;2022-07-03T16:39:16;24.30;91.60
48454;DHT22;34261;55.678;12.464;2022-07-03T16:42:18;24.20;91.90
48454;DHT22;34261;55.678;12.464;2022-07-03T16:44:53;24.30;92.30
48454;DHT22;34261;55.678;12.464;2022-07-03T16:47:20;24.40;92.30
48454;DHT22;34261;55.678;12.464;2022-07-03T16:49:52;24.50;92.20
48454;DHT22;34261;55.678;12.464;2022-07-03T16:52:26;24.50;92.00
48454;DHT22;34261;55.678;12.464;2022-07-03T16:58:26;24.40;91.90
48454;DHT22;34261;55.678;12.464;2022-07-03T17:01:27;24.50;92.00
48454;DHT22;34261;55.678;12.464;2022-07-03T17:33:50;24.50;92.00
48454;DHT22;34261;55.678;12.464;2022-07-03T17:36:26;24.30;92.20
48454;DHT22;34261;55.678;12.464;2022-07-03T17:39:20;24.20;92.20
48454;DHT22;34261;55.678;12.464;2022-07-03T17:41:58;24.10;92.60
48454;DHT22;34261;55.678;12.464;2022-07-03T17:44:33;24.10;93.00
48454;DHT22;34261;55.678;12.464;2022-07-03T17:47:21;24.10;92.70
48454;DHT22;34261;55.678;12.464;2022-07-03T17:50:04;24.00;93.00
48454;DHT22;34261;55.678;12.464;2022-07-03T17:52:32;24.00;92.90
48454;DHT22;34261;55.678;12.464;2022-07-03T17:55:22;23.90;93.30
48454;DHT22;34261;55.678;12.464;2022-07-03T17:58:27;23.90;93.50
48454;DHT22;34261;55.678;12.464;2022-07-03T18:04:30;23.90;93.70
48454;DHT22;34261;55.678;12.464;2022-07-03T18:18:08;23.60;94.60
48454;DHT22;34261;55.678;12.464;2022-07-03T18:21:05;23.40;94.90
48454;DHT22;34261;55.678;12.464;2022-07-03T18:24:06;23.30;95.10
48454;DHT22;34261;55.678;12.464;2022-07-03T18:27:23;23.30;95.30
48454;DHT22;34261;55.678;12.464;2022-07-03T18:30:28;23.30;95.60
48454;DHT22;34261;55.678;12.464;2022-07-03T19:31:54;21.90;99.90
48454;DHT22;34261;55.678;12.464;2022-07-03T19:34:47;21.80;99.90
48454;DHT22;34261;55.678;12.464;2022-07-03T19:37:20;21.60;99.90
48454;DHT22;34261;55.678;12.464;2022-07-03T19:39:48;21.60;99.90
48454;DHT22;34261;55.678;12.464;2022-07-03T20:34:30;21.20;99.90
48454;DHT22;34261;55.678;12.464;2022-07-03T20:37:02;21.10;99.90
48454;DHT22;34261;55.678;12.464;2022-07-03T20:39:32;21.10;99.90
48454;DHT22;34261;55.678;12.464;2022-07-03T21:36:47;20.50;99.90
48454;DHT22;34261;55.678;12.464;2022-07-03T21:39:15;20.40;99.90
48454;DHT22;34261;55.678;12.464;2022-07-03T21:41:42;20.40;99.90
48454;DHT22;34261;55.678;12.464;2022-07-03T21:44:10;20.40;99.90
48454;DHT22;34261;55.678;12.464;2022-07-03T21:46:39;20.40;99.90
48454;DHT22;34261;55.678;12.464;2022-07-03T21:49:10;20.40;99.90
48454;DHT22;34261;55.678;12.464;2022-07-03T21:51:37;20.30;99.90
48454;DHT22;34261;55.678;12.464;2022-07-03T21:54:05;20.30;99.90
48454;DHT22;34261;55.678;12.464;2022-07-03T21:56:34;20.30;99.90
48454;DHT22;34261;55.678;12.464;2022-07-03T21:59:01;20.10;99.90
48454;DHT22;34261;55.678;12.464;2022-07-03T22:01:29;20.20;99.90
48454;DHT22;34261;55.678;12.464;2022-07-03T22:03:56;20.10;99.90
48454;DHT22;34261;55.678;12.464;2022-07-03T22:06:23;20.10;99.90
48454;DHT22;34261;55.678;12.464;2022-07-03T22:08:51;20.00;99.90
48454;DHT22;34261;55.678;12.464;2022-07-03T22:11:18;20.00;99.90
48454;DHT22;34261;55.678;12.464;2022-07-03T22:13:46;19.90;99.90
48454;DHT22;34261;55.678;12.464;2022-07-03T22:16:13;19.80;99.90
48454;DHT22;34261;55.678;12.464;2022-07-03T22:18:40;19.70;99.90
48454;DHT22;34261;55.678;12.464;2022-07-03T22:21:07;19.70;99.90
48454;DHT22;34261;55.678;12.464;2022-07-03T22:23:34;19.70;99.90
48454;DHT22;34261;55.678;12.464;2022-07-03T22:26:00;19.60;99.90
48454;DHT22;34261;55.678;12.464;2022-07-03T22:28:27;19.60;99.90
48454;DHT22;34261;55.678;12.464;2022-07-03T22:30:54;19.50;99.90
48454;DHT22;34261;55.678;12.464;2022-07-03T22:33:40;19.40;99.90
48454;DHT22;34261;55.678;12.464;2022-07-03T22:36:07;19.20;99.90
48454;DHT22;34261;55.678;12.464;2022-07-03T22:38:35;18.90;99.90
48454;DHT22;34261;55.678;12.464;2022-07-03T22:41:03;18.80;99.90
48454;DHT22;34261;55.678;12.464;2022-07-03T22:43:29;18.70;99.90
48454;DHT22;34261;55.678;12.464;2022-07-03T22:45:56;18.70;99.90
48454;DHT22;34261;55.678;12.464;2022-07-03T22:48:22;18.70;99.90
48454;DHT22;34261;55.678;12.464;2022-07-03T22:50:48;18.70;99.90
48454;DHT22;34261;55.678;12.464;2022-07-03T22:53:14;18.60;99.90
48454;DHT22;34261;55.678;12.464;2022-07-03T22:55:40;18.50;99.90
48454;DHT22;34261;55.678;12.464;2022-07-03T22:58:07;18.50;99.90
48454;DHT22;34261;55.678;12.464;2022-07-03T23:00:33;18.50;99.90
48454;DHT22;34261;55.678;12.464;2022-07-03T23:02:58;18.40;99.90
48454;DHT22;34261;55.678;12.464;2022-07-03T23:05:24;18.40;99.90
48454;DHT22;34261;55.678;12.464;2022-07-03T23:07:49;18.30;99.90
48454;DHT22;34261;55.678;12.464;2022-07-03T23:10:15;18.30;99.90
48454;DHT22;34261;55.678;12.464;2022-07-03T23:12:41;18.20;99.90
48454;DHT22;34261;55.678;12.464;2022-07-03T23:15:07;18.20;99.90
48454;DHT22;34261;55.678;12.464;2022-07-03T23:17:33;18.20;99.90
48454;DHT22;34261;55.678;12.464;2022-07-03T23:19:59;18.20;99.90
48454;DHT22;34261;55.678;12.464;2022-07-03T23:22:24;18.20;99.90
48454;DHT22;34261;55.678;12.464;2022-07-03T23:24:50;18.10;99.90
48454;DHT22;34261;55.678;12.464;2022-07-03T23:27:15;18.10;99.90
48454;DHT22;34261;55.678;12.464;2022-07-03T23:29:41;18.10;99.90
48454;DHT22;34261;55.678;12.464;2022-07-03T23:32:07;18.10;99.90
48454;DHT22;34261;55.678;12.464;2022-07-03T23:34:32;18.00;99.90
48454;DHT22;34261;55.678;12.464;2022-07-03T23:36:58;18.00;99.90
48454;DHT22;34261;55.678;12.464;2022-07-03T23:39:24;18.00;99.90
48454;DHT22;34261;55.678;12.464;2022-07-03T23:41:49;18.00;99.90
48454;DHT22;34261;55.678;12.464;2022-07-03T23:44:15;17.90;99.90
48454;DHT22;34261;55.678;12.464;2022-07-03T23:46:41;17.80;99.90
48454;DHT22;34261;55.678;12.464;2022-07-03T23:49:07;17.70;99.90
48454;DHT22;34261;55.678;12.464;2022-07-03T23:51:51;17.70;99.90
48454;DHT22;34261;55.678;12.464;2022-07-03T23:54:17;17.70;99.90
48454;DHT22;34261;55.678;12.464;2022-07-03T23:56:42;17.60;99.90
48454;DHT22;34261;55.678;12.464;2022-07-03T23:59:08;17.60;99.90
